sensor_id;sensor_type;location;lat;lon;timestamp;temperature;humidity
34776;DHT22;20989;52.566;13.346;2022-11-27T00:02:31;21.10;51.10
34776;DHT22;20989;52.566;13.346;2022-11-27T00:05:32;21.10;51.10
34776;DHT22;20989;52.566;13.346;2022-11-27T00:08:33;21.10;51.10
34776;DHT22;20989;52.566;13.346;2022-11-27T00:11:34;21.10;51.10
34776;DHT22;20989;52.566;13.346;2022-11-27T00:14:34;21.10;51.10
34776;DHT22;20989;52.566;13.346;2022-11-27T00:17:35;21.10;51.10
34776;DHT22;20989;52.566;13.346;2022-11-27T00:20:36;21.10;51.60
34776;DHT22;20989;52.566;13.346;2022-11-27T00:23:38;21.10;51.00
34776;DHT22;20989;52.566;13.346;2022-11-27T00:26:38;21.10;51.00
34776;DHT22;20989;52.566;13.346;2022-11-27T00:29:39;21.10;51.00
34776;DHT22;20989;52.566;13.346;2022-11-27T00:32:40;21.10;51.00
34776;DHT22;20989;52.566;13.346;2022-11-27T00:35:40;21.10;51.00
34776;DHT22;20989;52.566;13.346;2022-11-27T00:38:41;21.10;51.10
34776;DHT22;20989;52.566;13.346;2022-11-27T00:41:42;21.10;51.10
34776;DHT22;20989;52.566;13.346;2022-11-27T00:44:43;21.10;51.00
34776;DHT22;20989;52.566;13.346;2022-11-27T00:47:44;21.10;51.10
34776;DHT22;20989;52.566;13.346;2022-11-27T00:50:44;21.10;51.10
34776;DHT22;20989;52.566;13.346;2022-11-27T00:53:45;21.10;51.10
34776;DHT22;20989;52.566;13.346;2022-11-27T00:56:46;21.10;51.10
34776;DHT22;20989;52.566;13.346;2022-11-27T00:59:46;21.10;51.10
34776;DHT22;20989;52.566;13.346;2022-11-27T01:02:47;21.10;51.10
34776;DHT22;20989;52.566;13.346;2022-11-27T01:05:48;21.10;51.00
34776;DHT22;20989;52.566;13.346;2022-11-27T01:08:49;21.10;51.00
34776;DHT22;20989;52.566;13.346;2022-11-27T01:11:50;21.10;51.00
34776;DHT22;20989;52.566;13.346;2022-11-27T01:14:51;21.10;51.10
34776;DHT22;20989;52.566;13.346;2022-11-27T01:17:51;21.10;51.00
34776;DHT22;20989;52.566;13.346;2022-11-27T01:20:52;21.10;51.00
34776;DHT22;20989;52.566;13.346;2022-11-27T01:23:53;21.10;51.00
34776;DHT22;20989;52.566;13.346;2022-11-27T01:26:54;21.10;51.00
34776;DHT22;20989;52.566;13.346;2022-11-27T01:29:55;21.10;51.00
34776;DHT22;20989;52.566;13.346;2022-11-27T01:32:56;21.20;51.00
34776;DHT22;20989;52.566;13.346;2022-11-27T01:35:59;21.20;51.00
34776;DHT22;20989;52.566;13.346;2022-11-27T01:39:00;21.20;50.90
34776;DHT22;20989;52.566;13.346;2022-11-27T01:42:01;21.20;50.90
34776;DHT22;20989;52.566;13.346;2022-11-27T01:45:03;21.20;50.80
34776;DHT22;20989;52.566;13.346;2022-11-27T01:48:04;21.20;50.80
34776;DHT22;20989;52.566;13.346;2022-11-27T01:51:05;21.30;50.80
34776;DHT22;20989;52.566;13.346;2022-11-27T01:54:07;21.30;50.80
34776;DHT22;20989;52.566;13.346;2022-11-27T01:57:17;21.30;50.70
34776;DHT22;20989;52.566;13.346;2022-11-27T02:00:19;21.30;50.70
34776;DHT22;20989;52.566;13.346;2022-11-27T02:03:20;21.30;50.80
34776;DHT22;20989;52.566;13.346;2022-11-27T02:06:21;21.30;50.70
34776;DHT22;20989;52.566;13.346;2022-11-27T02:09:22;21.30;50.70
34776;DHT22;20989;52.566;13.346;2022-11-27T02:12:26;21.30;50.70
34776;DHT22;20989;52.566;13.346;2022-11-27T02:38:54;21.30;50.90
34776;DHT22;20989;52.566;13.346;2022-11-27T02:42:02;21.30;51.00
34776;DHT22;20989;52.566;13.346;2022-11-27T02:45:13;21.20;50.90
34776;DHT22;20989;52.566;13.346;2022-11-27T02:48:16;21.20;50.90
34776;DHT22;20989;52.566;13.346;2022-11-27T02:51:22;21.20;50.90
34776;DHT22;20989;52.566;13.346;2022-11-27T02:54:27;21.20;51.00
34776;DHT22;20989;52.566;13.346;2022-11-27T02:57:30;21.20;51.10
34776;DHT22;20989;52.566;13.346;2022-11-27T03:00:32;21.20;51.00
34776;DHT22;20989;52.566;13.346;2022-11-27T03:03:44;21.20;51.10
34776;DHT22;20989;52.566;13.346;2022-11-27T03:06:49;21.20;51.10
34776;DHT22;20989;52.566;13.346;2022-11-27T03:09:53;21.20;51.10
34776;DHT22;20989;52.566;13.346;2022-11-27T03:12:58;21.10;51.00
34776;DHT22;20989;52.566;13.346;2022-11-27T03:16:11;21.20;51.10
34776;DHT22;20989;52.566;13.346;2022-11-27T03:19:18;21.20;51.10
34776;DHT22;20989;52.566;13.346;2022-11-27T03:22:20;21.20;51.10
34776;DHT22;20989;52.566;13.346;2022-11-27T03:25:22;21.20;51.10
34776;DHT22;20989;52.566;13.346;2022-11-27T03:28:23;21.20;51.10
34776;DHT22;20989;52.566;13.346;2022-11-27T03:31:25;21.20;51.10
34776;DHT22;20989;52.566;13.346;2022-11-27T03:34:26;21.20;51.10
34776;DHT22;20989;52.566;13.346;2022-11-27T03:37:28;21.20;51.00
34776;DHT22;20989;52.566;13.346;2022-11-27T03:40:35;21.20;51.10
34776;DHT22;20989;52.566;13.346;2022-11-27T03:43:52;21.20;51.10
34776;DHT22;20989;52.566;13.346;2022-11-27T03:53:58;21.20;51.00
34776;DHT22;20989;52.566;13.346;2022-11-27T03:57:27;21.20;51.00
34776;DHT22;20989;52.566;13.346;2022-11-27T04:00:34;21.20;50.90
34776;DHT22;20989;52.566;13.346;2022-11-27T04:03:36;21.20;51.00
34776;DHT22;20989;52.566;13.346;2022-11-27T04:06:37;21.20;51.40
34776;DHT22;20989;52.566;13.346;2022-11-27T04:09:38;21.20;51.00
34776;DHT22;20989;52.566;13.346;2022-11-27T04:12:38;21.20;51.00
34776;DHT22;20989;52.566;13.346;2022-11-27T04:15:39;21.20;50.90
34776;DHT22;20989;52.566;13.346;2022-11-27T04:18:40;21.20;50.90
34776;DHT22;20989;52.566;13.346;2022-11-27T04:21:41;21.20;50.90
34776;DHT22;20989;52.566;13.346;2022-11-27T04:24:41;21.20;50.90
34776;DHT22;20989;52.566;13.346;2022-11-27T04:27:42;21.20;50.90
34776;DHT22;20989;52.566;13.346;2022-11-27T04:30:44;21.20;50.90
34776;DHT22;20989;52.566;13.346;2022-11-27T04:33:45;21.20;50.90
34776;DHT22;20989;52.566;13.346;2022-11-27T04:36:45;21.20;50.90
34776;DHT22;20989;52.566;13.346;2022-11-27T04:39:46;21.20;50.90
34776;DHT22;20989;52.566;13.346;2022-11-27T04:42:47;21.20;50.90
34776;DHT22;20989;52.566;13.346;2022-11-27T04:45:47;21.20;50.90
34776;DHT22;20989;52.566;13.346;2022-11-27T04:48:48;21.20;50.90
34776;DHT22;20989;52.566;13.346;2022-11-27T04:51:49;21.20;50.90
34776;DHT22;20989;52.566;13.346;2022-11-27T04:54:50;21.20;50.90
34776;DHT22;20989;52.566;13.346;2022-11-27T04:57:50;21.20;50.90
34776;DHT22;20989;52.566;13.346;2022-11-27T05:00:51;21.20;50.90
34776;DHT22;20989;52.566;13.346;2022-11-27T05:03:52;21.20;50.90
34776;DHT22;20989;52.566;13.346;2022-11-27T05:06:53;21.20;50.90
34776;DHT22;20989;52.566;13.346;2022-11-27T05:09:54;21.20;51.00
34776;DHT22;20989;52.566;13.346;2022-11-27T05:12:54;21.20;50.90
34776;DHT22;20989;52.566;13.346;2022-11-27T05:15:55;21.20;50.90
34776;DHT22;20989;52.566;13.346;2022-11-27T05:18:56;21.20;50.90
34776;DHT22;20989;52.566;13.346;2022-11-27T05:21:57;21.20;51.00
34776;DHT22;20989;52.566;13.346;2022-11-27T05:24:58;21.20;50.90
34776;DHT22;20989;52.566;13.346;2022-11-27T05:27:59;21.20;51.40
34776;DHT22;20989;52.566;13.346;2022-11-27T05:31:00;21.20;50.80
34776;DHT22;20989;52.566;13.346;2022-11-27T05:34:01;21.20;50.90
34776;DHT22;20989;52.566;13.346;2022-11-27T05:37:02;21.20;50.80
34776;DHT22;20989;52.566;13.346;2022-11-27T05:40:03;21.20;50.80
34776;DHT22;20989;52.566;13.346;2022-11-27T05:43:03;21.20;50.90
34776;DHT22;20989;52.566;13.346;2022-11-27T05:46:06;21.20;50.80
34776;DHT22;20989;52.566;13.346;2022-11-27T05:49:07;21.20;50.90
34776;DHT22;20989;52.566;13.346;2022-11-27T05:52:09;21.20;50.90
34776;DHT22;20989;52.566;13.346;2022-11-27T05:55:09;21.20;50.90
34776;DHT22;20989;52.566;13.346;2022-11-27T05:58:10;21.20;50.90
34776;DHT22;20989;52.566;13.346;2022-11-27T06:01:11;21.20;50.90
34776;DHT22;20989;52.566;13.346;2022-11-27T06:04:13;21.20;50.90
34776;DHT22;20989;52.566;13.346;2022-11-27T06:07:13;21.20;50.90
34776;DHT22;20989;52.566;13.346;2022-11-27T06:10:14;21.20;50.90
34776;DHT22;20989;52.566;13.346;2022-11-27T06:13:15;21.20;50.90
34776;DHT22;20989;52.566;13.346;2022-11-27T06:16:21;21.20;50.90
34776;DHT22;20989;52.566;13.346;2022-11-27T06:19:22;21.20;50.90
34776;DHT22;20989;52.566;13.346;2022-11-27T06:22:22;21.20;50.90
34776;DHT22;20989;52.566;13.346;2022-11-27T06:25:25;21.20;50.90
34776;DHT22;20989;52.566;13.346;2022-11-27T06:28:25;21.20;50.90
34776;DHT22;20989;52.566;13.346;2022-11-27T06:31:28;21.20;50.90
34776;DHT22;20989;52.566;13.346;2022-11-27T06:34:29;21.20;50.90
34776;DHT22;20989;52.566;13.346;2022-11-27T06:37:30;21.20;50.90
34776;DHT22;20989;52.566;13.346;2022-11-27T06:40:31;21.20;50.90
34776;DHT22;20989;52.566;13.346;2022-11-27T06:43:33;21.20;50.90
34776;DHT22;20989;52.566;13.346;2022-11-27T06:46:34;21.20;50.90
34776;DHT22;20989;52.566;13.346;2022-11-27T06:49:35;21.20;50.90
34776;DHT22;20989;52.566;13.346;2022-11-27T06:52:36;21.20;50.90
34776;DHT22;20989;52.566;13.346;2022-11-27T06:55:37;21.20;50.90
34776;DHT22;20989;52.566;13.346;2022-11-27T06:58:38;21.20;50.90
34776;DHT22;20989;52.566;13.346;2022-11-27T07:01:39;21.20;50.90
34776;DHT22;20989;52.566;13.346;2022-11-27T07:04:40;21.20;50.90
34776;DHT22;20989;52.566;13.346;2022-11-27T07:07:41;21.20;50.80
34776;DHT22;20989;52.566;13.346;2022-11-27T07:10:41;21.20;50.90
34776;DHT22;20989;52.566;13.346;2022-11-27T07:13:42;21.20;50.80
34776;DHT22;20989;52.566;13.346;2022-11-27T07:16:43;21.20;50.90
34776;DHT22;20989;52.566;13.346;2022-11-27T07:19:46;21.20;50.80
34776;DHT22;20989;52.566;13.346;2022-11-27T07:22:46;21.20;50.70
34776;DHT22;20989;52.566;13.346;2022-11-27T07:25:47;21.20;50.70
34776;DHT22;20989;52.566;13.346;2022-11-27T07:28:48;21.20;50.70
34776;DHT22;20989;52.566;13.346;2022-11-27T07:31:48;21.20;50.70
34776;DHT22;20989;52.566;13.346;2022-11-27T07:34:50;21.20;50.70
34776;DHT22;20989;52.566;13.346;2022-11-27T07:37:51;21.20;50.70
34776;DHT22;20989;52.566;13.346;2022-11-27T07:40:53;21.30;50.70
34776;DHT22;20989;52.566;13.346;2022-11-27T07:43:54;21.20;50.70
34776;DHT22;20989;52.566;13.346;2022-11-27T07:46:54;21.30;50.70
34776;DHT22;20989;52.566;13.346;2022-11-27T07:49:56;21.30;50.70
34776;DHT22;20989;52.566;13.346;2022-11-27T07:52:59;21.20;50.70
34776;DHT22;20989;52.566;13.346;2022-11-27T07:56:00;21.20;50.70
34776;DHT22;20989;52.566;13.346;2022-11-27T07:59:00;21.30;50.70
34776;DHT22;20989;52.566;13.346;2022-11-27T08:02:01;21.20;50.70
34776;DHT22;20989;52.566;13.346;2022-11-27T08:05:04;21.20;50.70
34776;DHT22;20989;52.566;13.346;2022-11-27T08:08:05;21.20;50.70
34776;DHT22;20989;52.566;13.346;2022-11-27T08:11:05;21.20;50.70
34776;DHT22;20989;52.566;13.346;2022-11-27T08:14:07;21.20;50.70
34776;DHT22;20989;52.566;13.346;2022-11-27T08:17:12;21.20;50.70
34776;DHT22;20989;52.566;13.346;2022-11-27T08:20:12;21.20;50.80
34776;DHT22;20989;52.566;13.346;2022-11-27T08:23:14;21.20;50.80
34776;DHT22;20989;52.566;13.346;2022-11-27T08:26:15;21.20;50.80
34776;DHT22;20989;52.566;13.346;2022-11-27T08:29:15;21.20;50.80
34776;DHT22;20989;52.566;13.346;2022-11-27T08:32:16;21.10;52.40
34776;DHT22;20989;52.566;13.346;2022-11-27T08:35:17;21.30;53.50
34776;DHT22;20989;52.566;13.346;2022-11-27T08:38:17;21.40;53.20
34776;DHT22;20989;52.566;13.346;2022-11-27T08:41:18;21.40;51.80
34776;DHT22;20989;52.566;13.346;2022-11-27T08:44:19;21.50;51.00
34776;DHT22;20989;52.566;13.346;2022-11-27T08:47:20;21.50;52.30
34776;DHT22;20989;52.566;13.346;2022-11-27T08:50:22;21.60;52.90
34776;DHT22;20989;52.566;13.346;2022-11-27T08:53:23;21.60;52.70
34776;DHT22;20989;52.566;13.346;2022-11-27T08:56:24;21.60;52.60
34776;DHT22;20989;52.566;13.346;2022-11-27T08:59:25;21.60;51.90
34776;DHT22;20989;52.566;13.346;2022-11-27T09:02:25;21.60;51.30
34776;DHT22;20989;52.566;13.346;2022-11-27T09:05:27;21.60;51.20
34776;DHT22;20989;52.566;13.346;2022-11-27T09:08:28;21.60;51.10
34776;DHT22;20989;52.566;13.346;2022-11-27T09:11:30;21.70;52.00
34776;DHT22;20989;52.566;13.346;2022-11-27T09:14:31;21.70;51.80
34776;DHT22;20989;52.566;13.346;2022-11-27T09:17:32;21.70;52.90
34776;DHT22;20989;52.566;13.346;2022-11-27T09:20:33;21.80;51.90
34776;DHT22;20989;52.566;13.346;2022-11-27T09:23:34;21.80;52.10
34776;DHT22;20989;52.566;13.346;2022-11-27T09:26:35;21.90;51.40
34776;DHT22;20989;52.566;13.346;2022-11-27T09:29:36;21.90;51.40
34776;DHT22;20989;52.566;13.346;2022-11-27T09:32:36;21.90;51.40
34776;DHT22;20989;52.566;13.346;2022-11-27T09:35:38;21.90;52.60
34776;DHT22;20989;52.566;13.346;2022-11-27T09:38:38;21.90;52.10
34776;DHT22;20989;52.566;13.346;2022-11-27T09:41:49;21.80;52.60
34776;DHT22;20989;52.566;13.346;2022-11-27T09:44:55;21.90;51.40
34776;DHT22;20989;52.566;13.346;2022-11-27T09:48:02;21.90;51.80
34776;DHT22;20989;52.566;13.346;2022-11-27T09:54:27;21.90;52.60
34776;DHT22;20989;52.566;13.346;2022-11-27T09:57:37;21.90;51.10
34776;DHT22;20989;52.566;13.346;2022-11-27T10:00:38;21.90;51.10
34776;DHT22;20989;52.566;13.346;2022-11-27T10:03:42;21.90;51.10
34776;DHT22;20989;52.566;13.346;2022-11-27T10:13:27;22.00;51.80
34776;DHT22;20989;52.566;13.346;2022-11-27T10:26:28;21.90;52.90
34776;DHT22;20989;52.566;13.346;2022-11-27T10:29:45;22.00;51.70
34776;DHT22;20989;52.566;13.346;2022-11-27T10:32:50;21.90;51.60
34776;DHT22;20989;52.566;13.346;2022-11-27T10:35:53;21.90;51.60
34776;DHT22;20989;52.566;13.346;2022-11-27T10:38:55;21.90;51.70
34776;DHT22;20989;52.566;13.346;2022-11-27T10:42:24;22.00;51.80
34776;DHT22;20989;52.566;13.346;2022-11-27T10:45:56;22.00;51.40
34776;DHT22;20989;52.566;13.346;2022-11-27T10:48:58;22.00;51.40
34776;DHT22;20989;52.566;13.346;2022-11-27T10:52:00;22.00;51.40
34776;DHT22;20989;52.566;13.346;2022-11-27T10:55:03;22.00;51.70
34776;DHT22;20989;52.566;13.346;2022-11-27T10:58:26;22.10;51.40
34776;DHT22;20989;52.566;13.346;2022-11-27T11:01:48;22.10;51.40
34776;DHT22;20989;52.566;13.346;2022-11-27T11:04:49;22.10;51.10
34776;DHT22;20989;52.566;13.346;2022-11-27T11:08:15;22.00;51.30
34776;DHT22;20989;52.566;13.346;2022-11-27T11:11:25;22.00;51.60
34776;DHT22;20989;52.566;13.346;2022-11-27T11:14:26;22.00;51.30
34776;DHT22;20989;52.566;13.346;2022-11-27T11:17:30;22.00;51.70
34776;DHT22;20989;52.566;13.346;2022-11-27T11:20:33;22.00;51.60
34776;DHT22;20989;52.566;13.346;2022-11-27T11:23:38;22.00;51.60
34776;DHT22;20989;52.566;13.346;2022-11-27T11:26:44;22.10;51.40
34776;DHT22;20989;52.566;13.346;2022-11-27T11:29:46;22.00;51.40
34776;DHT22;20989;52.566;13.346;2022-11-27T11:32:49;22.00;51.40
34776;DHT22;20989;52.566;13.346;2022-11-27T11:35:53;22.00;51.70
34776;DHT22;20989;52.566;13.346;2022-11-27T11:38:54;22.00;51.70
34776;DHT22;20989;52.566;13.346;2022-11-27T11:41:56;22.10;51.40
34776;DHT22;20989;52.566;13.346;2022-11-27T11:45:18;22.10;51.30
34776;DHT22;20989;52.566;13.346;2022-11-27T11:48:27;22.10;51.50
34776;DHT22;20989;52.566;13.346;2022-11-27T11:51:34;22.00;51.70
34776;DHT22;20989;52.566;13.346;2022-11-27T12:01:41;22.00;51.30
34776;DHT22;20989;52.566;13.346;2022-11-27T12:05:09;22.00;51.40
34776;DHT22;20989;52.566;13.346;2022-11-27T12:21:45;22.10;51.40
34776;DHT22;20989;52.566;13.346;2022-11-27T12:25:21;22.10;51.60
34776;DHT22;20989;52.566;13.346;2022-11-27T12:35:31;22.10;51.60
34776;DHT22;20989;52.566;13.346;2022-11-27T12:42:33;22.00;51.50
34776;DHT22;20989;52.566;13.346;2022-11-27T12:45:44;22.00;51.70
34776;DHT22;20989;52.566;13.346;2022-11-27T12:52:00;22.10;51.40
34776;DHT22;20989;52.566;13.346;2022-11-27T12:55:15;22.10;51.20
34776;DHT22;20989;52.566;13.346;2022-11-27T12:58:25;22.10;51.40
34776;DHT22;20989;52.566;13.346;2022-11-27T13:01:52;22.10;51.30
34776;DHT22;20989;52.566;13.346;2022-11-27T13:05:09;22.00;51.40
34776;DHT22;20989;52.566;13.346;2022-11-27T13:08:31;22.00;51.40
34776;DHT22;20989;52.566;13.346;2022-11-27T13:11:38;22.00;52.00
34776;DHT22;20989;52.566;13.346;2022-11-27T13:14:41;22.10;51.50
34776;DHT22;20989;52.566;13.346;2022-11-27T13:17:43;22.10;51.30
34776;DHT22;20989;52.566;13.346;2022-11-27T13:20:45;22.10;51.80
34776;DHT22;20989;52.566;13.346;2022-11-27T13:23:47;22.30;51.30
34776;DHT22;20989;52.566;13.346;2022-11-27T13:30:14;22.20;51.60
34776;DHT22;20989;52.566;13.346;2022-11-27T13:33:29;22.10;51.60
34776;DHT22;20989;52.566;13.346;2022-11-27T13:36:39;22.00;51.60
34776;DHT22;20989;52.566;13.346;2022-11-27T13:39:41;22.00;51.70
34776;DHT22;20989;52.566;13.346;2022-11-27T13:42:44;22.10;52.00
34776;DHT22;20989;52.566;13.346;2022-11-27T13:45:45;22.20;52.20
34776;DHT22;20989;52.566;13.346;2022-11-27T13:49:15;22.20;51.50
34776;DHT22;20989;52.566;13.346;2022-11-27T13:52:11;22.30;51.80
34776;DHT22;20989;52.566;13.346;2022-11-27T13:55:22;22.10;52.30
34776;DHT22;20989;52.566;13.346;2022-11-27T13:58:36;22.10;52.50
34776;DHT22;20989;52.566;13.346;2022-11-27T14:01:37;22.20;51.90
34776;DHT22;20989;52.566;13.346;2022-11-27T14:04:48;22.20;51.80
34776;DHT22;20989;52.566;13.346;2022-11-27T14:07:55;22.20;53.00
34776;DHT22;20989;52.566;13.346;2022-11-27T14:11:08;22.30;52.80
34776;DHT22;20989;52.566;13.346;2022-11-27T14:14:24;22.30;52.00
34776;DHT22;20989;52.566;13.346;2022-11-27T14:17:39;22.40;51.90
34776;DHT22;20989;52.566;13.346;2022-11-27T14:20:56;22.30;51.70
34776;DHT22;20989;52.566;13.346;2022-11-27T14:23:57;22.30;52.90
34776;DHT22;20989;52.566;13.346;2022-11-27T14:27:05;22.30;52.60
34776;DHT22;20989;52.566;13.346;2022-11-27T14:30:34;22.30;52.10
34776;DHT22;20989;52.566;13.346;2022-11-27T14:33:42;22.30;52.10
34776;DHT22;20989;52.566;13.346;2022-11-27T14:36:43;22.30;52.30
34776;DHT22;20989;52.566;13.346;2022-11-27T14:39:44;22.30;52.30
34776;DHT22;20989;52.566;13.346;2022-11-27T14:42:45;22.30;52.20
34776;DHT22;20989;52.566;13.346;2022-11-27T14:45:48;22.30;52.20
34776;DHT22;20989;52.566;13.346;2022-11-27T14:48:51;22.30;52.40
34776;DHT22;20989;52.566;13.346;2022-11-27T14:52:04;22.30;52.80
34776;DHT22;20989;52.566;13.346;2022-11-27T14:55:15;22.30;52.40
34776;DHT22;20989;52.566;13.346;2022-11-27T14:58:21;22.30;52.80
34776;DHT22;20989;52.566;13.346;2022-11-27T15:01:26;22.30;52.60
34776;DHT22;20989;52.566;13.346;2022-11-27T15:04:41;22.30;53.10
34776;DHT22;20989;52.566;13.346;2022-11-27T15:07:42;22.40;52.40
34776;DHT22;20989;52.566;13.346;2022-11-27T15:10:42;22.30;52.90
34776;DHT22;20989;52.566;13.346;2022-11-27T15:13:50;22.30;52.50
34776;DHT22;20989;52.566;13.346;2022-11-27T15:16:53;22.20;53.10
34776;DHT22;20989;52.566;13.346;2022-11-27T15:19:55;22.30;52.80
34776;DHT22;20989;52.566;13.346;2022-11-27T15:22:58;22.30;52.40
34776;DHT22;20989;52.566;13.346;2022-11-27T15:29:00;22.20;52.60
34776;DHT22;20989;52.566;13.346;2022-11-27T15:32:02;22.30;52.80
34776;DHT22;20989;52.566;13.346;2022-11-27T15:35:12;22.20;53.10
34776;DHT22;20989;52.566;13.346;2022-11-27T15:38:16;22.20;53.40
34776;DHT22;20989;52.566;13.346;2022-11-27T15:41:28;22.30;52.90
34776;DHT22;20989;52.566;13.346;2022-11-27T15:44:31;22.40;52.30
34776;DHT22;20989;52.566;13.346;2022-11-27T15:47:36;22.30;52.40
34776;DHT22;20989;52.566;13.346;2022-11-27T15:50:38;22.40;53.40
34776;DHT22;20989;52.566;13.346;2022-11-27T15:53:39;22.40;52.10
34776;DHT22;20989;52.566;13.346;2022-11-27T15:56:40;22.40;52.10
34776;DHT22;20989;52.566;13.346;2022-11-27T15:59:41;22.40;52.50
34776;DHT22;20989;52.566;13.346;2022-11-27T16:02:41;22.40;52.10
34776;DHT22;20989;52.566;13.346;2022-11-27T16:05:42;22.40;52.20
34776;DHT22;20989;52.566;13.346;2022-11-27T16:08:43;22.40;52.30
34776;DHT22;20989;52.566;13.346;2022-11-27T16:11:44;22.40;52.20
34776;DHT22;20989;52.566;13.346;2022-11-27T16:14:45;22.40;52.30
34776;DHT22;20989;52.566;13.346;2022-11-27T16:17:45;22.40;52.10
34776;DHT22;20989;52.566;13.346;2022-11-27T16:20:46;22.40;53.20
34776;DHT22;20989;52.566;13.346;2022-11-27T16:23:47;22.40;52.40
34776;DHT22;20989;52.566;13.346;2022-11-27T16:26:47;22.30;52.80
34776;DHT22;20989;52.566;13.346;2022-11-27T16:29:48;22.30;52.90
34776;DHT22;20989;52.566;13.346;2022-11-27T16:32:49;22.20;53.20
34776;DHT22;20989;52.566;13.346;2022-11-27T16:35:50;22.20;52.90
34776;DHT22;20989;52.566;13.346;2022-11-27T16:38:52;22.20;53.00
34776;DHT22;20989;52.566;13.346;2022-11-27T16:41:54;22.10;52.80
34776;DHT22;20989;52.566;13.346;2022-11-27T16:44:54;22.30;52.70
34776;DHT22;20989;52.566;13.346;2022-11-27T16:47:55;22.30;53.20
34776;DHT22;20989;52.566;13.346;2022-11-27T16:51:16;22.20;53.20
34776;DHT22;20989;52.566;13.346;2022-11-27T16:54:17;22.30;52.60
34776;DHT22;20989;52.566;13.346;2022-11-27T16:57:18;22.30;53.20
34776;DHT22;20989;52.566;13.346;2022-11-27T17:00:19;22.20;53.80
34776;DHT22;20989;52.566;13.346;2022-11-27T17:03:20;22.30;52.90
34776;DHT22;20989;52.566;13.346;2022-11-27T17:06:25;22.30;53.20
34776;DHT22;20989;52.566;13.346;2022-11-27T17:09:26;22.20;53.20
34776;DHT22;20989;52.566;13.346;2022-11-27T17:12:28;22.20;53.30
34776;DHT22;20989;52.566;13.346;2022-11-27T17:15:29;22.30;53.90
34776;DHT22;20989;52.566;13.346;2022-11-27T17:18:29;22.30;54.20
34776;DHT22;20989;52.566;13.346;2022-11-27T17:21:32;22.40;52.90
34776;DHT22;20989;52.566;13.346;2022-11-27T17:24:33;22.40;52.60
34776;DHT22;20989;52.566;13.346;2022-11-27T17:27:35;22.40;53.10
34776;DHT22;20989;52.566;13.346;2022-11-27T17:30:39;22.30;53.90
34776;DHT22;20989;52.566;13.346;2022-11-27T17:33:40;22.40;52.90
34776;DHT22;20989;52.566;13.346;2022-11-27T17:36:41;23.50;57.10
34776;DHT22;20989;52.566;13.346;2022-11-27T17:39:43;23.70;55.80
34776;DHT22;20989;52.566;13.346;2022-11-27T17:42:44;22.80;53.10
34776;DHT22;20989;52.566;13.346;2022-11-27T17:45:44;22.50;54.50
34776;DHT22;20989;52.566;13.346;2022-11-27T17:48:45;22.30;54.70
34776;DHT22;20989;52.566;13.346;2022-11-27T17:51:46;22.20;54.90
34776;DHT22;20989;52.566;13.346;2022-11-27T17:54:46;22.30;54.70
34776;DHT22;20989;52.566;13.346;2022-11-27T17:57:47;22.30;55.00
34776;DHT22;20989;52.566;13.346;2022-11-27T18:00:48;22.30;54.90
34776;DHT22;20989;52.566;13.346;2022-11-27T18:03:49;22.30;55.00
34776;DHT22;20989;52.566;13.346;2022-11-27T18:06:50;22.30;54.20
34776;DHT22;20989;52.566;13.346;2022-11-27T18:09:51;22.30;54.10
34776;DHT22;20989;52.566;13.346;2022-11-27T18:12:53;22.30;54.90
34776;DHT22;20989;52.566;13.346;2022-11-27T18:15:54;22.20;54.60
34776;DHT22;20989;52.566;13.346;2022-11-27T18:18:56;22.10;54.70
34776;DHT22;20989;52.566;13.346;2022-11-27T18:21:57;21.90;54.60
34776;DHT22;20989;52.566;13.346;2022-11-27T18:24:59;21.90;54.70
34776;DHT22;20989;52.566;13.346;2022-11-27T18:28:00;21.90;54.60
34776;DHT22;20989;52.566;13.346;2022-11-27T18:31:10;21.80;54.70
34776;DHT22;20989;52.566;13.346;2022-11-27T18:34:11;21.70;54.80
34776;DHT22;20989;52.566;13.346;2022-11-27T18:37:12;21.70;54.70
34776;DHT22;20989;52.566;13.346;2022-11-27T18:40:12;21.70;54.90
34776;DHT22;20989;52.566;13.346;2022-11-27T18:43:13;21.70;54.70
34776;DHT22;20989;52.566;13.346;2022-11-27T18:46:15;21.60;54.60
34776;DHT22;20989;52.566;13.346;2022-11-27T18:49:16;21.60;54.40
34776;DHT22;20989;52.566;13.346;2022-11-27T18:52:17;21.60;54.50
34776;DHT22;20989;52.566;13.346;2022-11-27T18:55:18;21.60;54.60
34776;DHT22;20989;52.566;13.346;2022-11-27T18:58:18;21.50;54.40
34776;DHT22;20989;52.566;13.346;2022-11-27T19:01:22;21.60;54.40
34776;DHT22;20989;52.566;13.346;2022-11-27T19:04:23;21.50;54.90
34776;DHT22;20989;52.566;13.346;2022-11-27T19:07:24;21.50;54.40
34776;DHT22;20989;52.566;13.346;2022-11-27T19:10:27;21.50;54.40
34776;DHT22;20989;52.566;13.346;2022-11-27T19:13:28;21.50;54.40
34776;DHT22;20989;52.566;13.346;2022-11-27T19:16:41;21.40;54.40
34776;DHT22;20989;52.566;13.346;2022-11-27T19:19:46;21.40;54.40
34776;DHT22;20989;52.566;13.346;2022-11-27T19:22:46;21.40;54.40
34776;DHT22;20989;52.566;13.346;2022-11-27T19:25:48;21.40;54.40
34776;DHT22;20989;52.566;13.346;2022-11-27T19:28:50;21.40;54.40
34776;DHT22;20989;52.566;13.346;2022-11-27T19:31:51;21.40;54.40
34776;DHT22;20989;52.566;13.346;2022-11-27T19:34:54;21.40;54.40
34776;DHT22;20989;52.566;13.346;2022-11-27T19:37:55;21.40;54.40
34776;DHT22;20989;52.566;13.346;2022-11-27T19:40:56;21.40;54.40
34776;DHT22;20989;52.566;13.346;2022-11-27T19:43:59;21.30;54.30
34776;DHT22;20989;52.566;13.346;2022-11-27T19:47:00;21.30;54.40
34776;DHT22;20989;52.566;13.346;2022-11-27T19:50:00;21.30;54.40
34776;DHT22;20989;52.566;13.346;2022-11-27T19:53:01;21.30;54.40
34776;DHT22;20989;52.566;13.346;2022-11-27T19:56:05;21.30;54.40
34776;DHT22;20989;52.566;13.346;2022-11-27T19:59:06;21.30;54.40
34776;DHT22;20989;52.566;13.346;2022-11-27T20:02:11;21.30;54.30
34776;DHT22;20989;52.566;13.346;2022-11-27T20:05:12;21.30;54.30
34776;DHT22;20989;52.566;13.346;2022-11-27T20:08:13;21.30;54.30
34776;DHT22;20989;52.566;13.346;2022-11-27T20:11:18;21.20;54.30
34776;DHT22;20989;52.566;13.346;2022-11-27T20:14:19;21.20;54.30
34776;DHT22;20989;52.566;13.346;2022-11-27T20:17:19;21.20;54.30
34776;DHT22;20989;52.566;13.346;2022-11-27T20:20:20;21.20;54.30
34776;DHT22;20989;52.566;13.346;2022-11-27T20:23:21;21.20;54.20
34776;DHT22;20989;52.566;13.346;2022-11-27T20:26:24;21.20;54.20
34776;DHT22;20989;52.566;13.346;2022-11-27T20:29:25;21.20;54.20
34776;DHT22;20989;52.566;13.346;2022-11-27T20:32:25;21.20;54.20